sensor_id;sensor_type;location;lat;lon;timestamp;pressure;altitude;pressure_sealevel;temperature;humidity
28306;BME280;7516;43.570;1.448;2022-10-31T00:01:10;99818.41;;;18.76;100.00
28306;BME280;7516;43.570;1.448;2022-10-31T00:03:38;99823.94;;;18.75;100.00
28306;BME280;7516;43.570;1.448;2022-10-31T00:06:06;99826.81;;;18.73;100.00
28306;BME280;7516;43.570;1.448;2022-10-31T00:08:35;99827.63;;;18.74;100.00
28306;BME280;7516;43.570;1.448;2022-10-31T00:11:03;99824.53;;;18.77;100.00
28306;BME280;7516;43.570;1.448;2022-10-31T00:13:31;99820.03;;;18.77;100.00
28306;BME280;7516;43.570;1.448;2022-10-31T00:15:59;99813.91;;;18.77;100.00
28306;BME280;7516;43.570;1.448;2022-10-31T00:18:26;99813.09;;;18.76;100.00
28306;BME280;7516;43.570;1.448;2022-10-31T00:20:59;99811.69;;;18.74;100.00
28306;BME280;7516;43.570;1.448;2022-10-31T00:23:27;99820.47;;;18.74;100.00
28306;BME280;7516;43.570;1.448;2022-10-31T00:26:00;99818.63;;;18.75;100.00
28306;BME280;7516;43.570;1.448;2022-10-31T00:28:28;99814.13;;;18.75;100.00
28306;BME280;7516;43.570;1.448;2022-10-31T00:30:59;99820.13;;;18.71;100.00
28306;BME280;7516;43.570;1.448;2022-10-31T00:33:27;99826.69;;;18.68;100.00
28306;BME280;7516;43.570;1.448;2022-10-31T00:35:55;99837.09;;;18.70;100.00
28306;BME280;7516;43.570;1.448;2022-10-31T00:38:23;99829.47;;;18.73;100.00
28306;BME280;7516;43.570;1.448;2022-10-31T00:40:50;99767.97;;;18.76;100.00
28306;BME280;7516;43.570;1.448;2022-10-31T00:43:19;99765.69;;;18.80;100.00
28306;BME280;7516;43.570;1.448;2022-10-31T00:45:47;99746.94;;;18.75;100.00
28306;BME280;7516;43.570;1.448;2022-10-31T00:48:14;99717.16;;;18.73;100.00
28306;BME280;7516;43.570;1.448;2022-10-31T00:50:42;99703.53;;;18.69;100.00
28306;BME280;7516;43.570;1.448;2022-10-31T00:53:09;99688.84;;;18.67;100.00
28306;BME280;7516;43.570;1.448;2022-10-31T00:55:37;99675.78;;;18.65;100.00
28306;BME280;7516;43.570;1.448;2022-10-31T00:58:04;99687.91;;;18.61;100.00
28306;BME280;7516;43.570;1.448;2022-10-31T01:00:33;99691.81;;;18.59;100.00
28306;BME280;7516;43.570;1.448;2022-10-31T01:03:01;99676.97;;;18.51;100.00
28306;BME280;7516;43.570;1.448;2022-10-31T01:05:28;99670.38;;;18.42;100.00
28306;BME280;7516;43.570;1.448;2022-10-31T01:07:56;99677.59;;;18.35;100.00
28306;BME280;7516;43.570;1.448;2022-10-31T01:10:23;99704.56;;;18.32;100.00
28306;BME280;7516;43.570;1.448;2022-10-31T01:12:51;99702.38;;;18.29;100.00
28306;BME280;7516;43.570;1.448;2022-10-31T01:15:21;99709.59;;;18.22;100.00
28306;BME280;7516;43.570;1.448;2022-10-31T01:17:50;99716.38;;;18.18;100.00
28306;BME280;7516;43.570;1.448;2022-10-31T01:20:17;99722.13;;;18.15;100.00
28306;BME280;7516;43.570;1.448;2022-10-31T01:22:45;99731.78;;;18.09;100.00
28306;BME280;7516;43.570;1.448;2022-10-31T01:25:12;99732.41;;;18.04;100.00
28306;BME280;7516;43.570;1.448;2022-10-31T01:27:40;99734.94;;;17.99;100.00
28306;BME280;7516;43.570;1.448;2022-10-31T01:30:08;99734.34;;;17.97;100.00
28306;BME280;7516;43.570;1.448;2022-10-31T01:32:36;99738.47;;;17.93;100.00
28306;BME280;7516;43.570;1.448;2022-10-31T01:35:05;99745.81;;;17.91;100.00
28306;BME280;7516;43.570;1.448;2022-10-31T01:37:33;99745.66;;;17.86;100.00
28306;BME280;7516;43.570;1.448;2022-10-31T01:40:00;99752.00;;;17.85;100.00
28306;BME280;7516;43.570;1.448;2022-10-31T01:42:27;99736.88;;;17.86;100.00
28306;BME280;7516;43.570;1.448;2022-10-31T01:44:58;99742.25;;;17.79;100.00
28306;BME280;7516;43.570;1.448;2022-10-31T01:47:38;99731.06;;;17.77;100.00
28306;BME280;7516;43.570;1.448;2022-10-31T01:50:14;99727.25;;;17.73;100.00
28306;BME280;7516;43.570;1.448;2022-10-31T01:52:44;99726.84;;;17.70;100.00
28306;BME280;7516;43.570;1.448;2022-10-31T01:55:15;99736.28;;;17.65;100.00
28306;BME280;7516;43.570;1.448;2022-10-31T01:57:46;99730.38;;;17.63;100.00
28306;BME280;7516;43.570;1.448;2022-10-31T02:00:16;99732.22;;;17.63;100.00
28306;BME280;7516;43.570;1.448;2022-10-31T02:02:45;99714.88;;;17.60;100.00
28306;BME280;7516;43.570;1.448;2022-10-31T02:05:17;99732.41;;;17.61;100.00
28306;BME280;7516;43.570;1.448;2022-10-31T02:07:52;99724.09;;;17.58;100.00
28306;BME280;7516;43.570;1.448;2022-10-31T02:10:22;99715.09;;;17.59;100.00
28306;BME280;7516;43.570;1.448;2022-10-31T02:12:53;99720.03;;;17.55;100.00
28306;BME280;7516;43.570;1.448;2022-10-31T02:15:21;99708.81;;;17.53;100.00
28306;BME280;7516;43.570;1.448;2022-10-31T02:17:49;99701.28;;;17.50;100.00
28306;BME280;7516;43.570;1.448;2022-10-31T02:20:19;99703.94;;;17.50;100.00
28306;BME280;7516;43.570;1.448;2022-10-31T02:26:17;99687.28;;;17.43;100.00
28306;BME280;7516;43.570;1.448;2022-10-31T02:29:03;99698.91;;;17.42;100.00
28306;BME280;7516;43.570;1.448;2022-10-31T02:31:37;99680.16;;;17.44;100.00
28306;BME280;7516;43.570;1.448;2022-10-31T02:34:13;99673.09;;;17.38;100.00
28306;BME280;7516;43.570;1.448;2022-10-31T02:36:50;99670.03;;;17.34;100.00
28306;BME280;7516;43.570;1.448;2022-10-31T02:39:23;99664.75;;;17.34;100.00
28306;BME280;7516;43.570;1.448;2022-10-31T02:41:57;99664.38;;;17.30;100.00
28306;BME280;7516;43.570;1.448;2022-10-31T02:44:34;99659.13;;;17.24;100.00
28306;BME280;7516;43.570;1.448;2022-10-31T02:47:08;99656.72;;;17.22;100.00
28306;BME280;7516;43.570;1.448;2022-10-31T02:49:43;99655.09;;;17.21;100.00
28306;BME280;7516;43.570;1.448;2022-10-31T02:52:20;99655.50;;;17.18;100.00
28306;BME280;7516;43.570;1.448;2022-10-31T02:54:48;99666.53;;;17.15;100.00
28306;BME280;7516;43.570;1.448;2022-10-31T02:57:18;99666.31;;;17.17;100.00
28306;BME280;7516;43.570;1.448;2022-10-31T02:59:49;99662.03;;;17.16;100.00
28306;BME280;7516;43.570;1.448;2022-10-31T03:05:44;99653.53;;;17.14;100.00
28306;BME280;7516;43.570;1.448;2022-10-31T03:08:22;99645.19;;;17.10;100.00
28306;BME280;7516;43.570;1.448;2022-10-31T03:10:54;99649.47;;;17.11;100.00
28306;BME280;7516;43.570;1.448;2022-10-31T03:13:31;99638.88;;;17.11;100.00
28306;BME280;7516;43.570;1.448;2022-10-31T03:16:07;99632.38;;;17.07;100.00
28306;BME280;7516;43.570;1.448;2022-10-31T03:18:41;99621.78;;;17.07;100.00
28306;BME280;7516;43.570;1.448;2022-10-31T03:21:12;99619.72;;;17.09;100.00
28306;BME280;7516;43.570;1.448;2022-10-31T03:23:41;99629.09;;;17.12;100.00
28306;BME280;7516;43.570;1.448;2022-10-31T03:26:12;99631.94;;;17.10;100.00
28306;BME280;7516;43.570;1.448;2022-10-31T03:28:44;99638.06;;;17.11;100.00
28306;BME280;7516;43.570;1.448;2022-10-31T03:31:16;99638.94;;;17.05;100.00
28306;BME280;7516;43.570;1.448;2022-10-31T03:33:47;99637.13;;;16.99;100.00
28306;BME280;7516;43.570;1.448;2022-10-31T03:36:16;99628.38;;;16.98;100.00
28306;BME280;7516;43.570;1.448;2022-10-31T03:38:45;99628.38;;;16.98;100.00
28306;BME280;7516;43.570;1.448;2022-10-31T03:41:17;99634.94;;;16.96;100.00
28306;BME280;7516;43.570;1.448;2022-10-31T03:43:51;99633.50;;;16.93;100.00
28306;BME280;7516;43.570;1.448;2022-10-31T03:46:21;99623.94;;;16.92;100.00
28306;BME280;7516;43.570;1.448;2022-10-31T03:48:51;99632.28;;;16.96;100.00
28306;BME280;7516;43.570;1.448;2022-10-31T03:51:24;99631.28;;;16.90;100.00
28306;BME280;7516;43.570;1.448;2022-10-31T03:53:56;99622.78;;;16.88;100.00
28306;BME280;7516;43.570;1.448;2022-10-31T03:56:32;99625.63;;;16.86;100.00
28306;BME280;7516;43.570;1.448;2022-10-31T03:59:04;99624.38;;;16.89;100.00
28306;BME280;7516;43.570;1.448;2022-10-31T04:01:36;99625.84;;;16.85;100.00
28306;BME280;7516;43.570;1.448;2022-10-31T04:04:06;99625.84;;;16.85;100.00
28306;BME280;7516;43.570;1.448;2022-10-31T04:06:36;99616.06;;;16.85;100.00
28306;BME280;7516;43.570;1.448;2022-10-31T04:09:05;99617.09;;;16.84;100.00
28306;BME280;7516;43.570;1.448;2022-10-31T04:11:35;99624.22;;;16.84;100.00
28306;BME280;7516;43.570;1.448;2022-10-31T04:14:05;99619.34;;;16.81;100.00
28306;BME280;7516;43.570;1.448;2022-10-31T04:16:34;99623.59;;;16.82;100.00
28306;BME280;7516;43.570;1.448;2022-10-31T04:19:02;99621.97;;;16.81;100.00
28306;BME280;7516;43.570;1.448;2022-10-31T04:21:31;99618.09;;;16.83;100.00
28306;BME280;7516;43.570;1.448;2022-10-31T04:23:59;99612.22;;;16.81;100.00
28306;BME280;7516;43.570;1.448;2022-10-31T04:26:26;99609.75;;;16.86;100.00
28306;BME280;7516;43.570;1.448;2022-10-31T04:28:54;99606.50;;;16.84;100.00
28306;BME280;7516;43.570;1.448;2022-10-31T04:31:21;99604.66;;;16.85;100.00
28306;BME280;7516;43.570;1.448;2022-10-31T04:33:48;99611.41;;;16.81;100.00
28306;BME280;7516;43.570;1.448;2022-10-31T04:36:16;99607.72;;;16.82;100.00
28306;BME280;7516;43.570;1.448;2022-10-31T04:38:45;99612.41;;;16.80;100.00
28306;BME280;7516;43.570;1.448;2022-10-31T04:41:12;99616.94;;;16.79;100.00
28306;BME280;7516;43.570;1.448;2022-10-31T04:43:40;99609.19;;;16.78;100.00
28306;BME280;7516;43.570;1.448;2022-10-31T04:46:07;99606.38;;;16.73;100.00
28306;BME280;7516;43.570;1.448;2022-10-31T04:48:34;99609.00;;;16.73;100.00
28306;BME280;7516;43.570;1.448;2022-10-31T04:51:02;99608.19;;;16.72;100.00
28306;BME280;7516;43.570;1.448;2022-10-31T04:53:30;99611.09;;;16.71;100.00
28306;BME280;7516;43.570;1.448;2022-10-31T04:55:59;99614.16;;;16.68;100.00
28306;BME280;7516;43.570;1.448;2022-10-31T04:58:27;99621.66;;;16.71;100.00
28306;BME280;7516;43.570;1.448;2022-10-31T05:00:55;99618.84;;;16.66;100.00
28306;BME280;7516;43.570;1.448;2022-10-31T05:03:23;99610.53;;;16.62;100.00
28306;BME280;7516;43.570;1.448;2022-10-31T05:05:51;99605.81;;;16.64;100.00
28306;BME280;7516;43.570;1.448;2022-10-31T05:08:18;99602.97;;;16.66;100.00
28306;BME280;7516;43.570;1.448;2022-10-31T05:10:46;99607.66;;;16.64;100.00
28306;BME280;7516;43.570;1.448;2022-10-31T05:13:15;99610.28;;;16.64;100.00
28306;BME280;7516;43.570;1.448;2022-10-31T05:15:42;99605.03;;;16.57;100.00
28306;BME280;7516;43.570;1.448;2022-10-31T05:18:10;99609.72;;;16.55;100.00
28306;BME280;7516;43.570;1.448;2022-10-31T05:20:37;99602.78;;;16.54;100.00
28306;BME280;7516;43.570;1.448;2022-10-31T05:23:05;99594.50;;;16.50;100.00
28306;BME280;7516;43.570;1.448;2022-10-31T05:25:32;99601.56;;;16.56;100.00
28306;BME280;7516;43.570;1.448;2022-10-31T05:28:00;99597.75;;;16.52;100.00
28306;BME280;7516;43.570;1.448;2022-10-31T05:30:30;99594.50;;;16.50;100.00
28306;BME280;7516;43.570;1.448;2022-10-31T05:32:58;99600.19;;;16.47;100.00
28306;BME280;7516;43.570;1.448;2022-10-31T05:35:27;99591.66;;;16.45;100.00
28306;BME280;7516;43.570;1.448;2022-10-31T05:37:55;99592.25;;;16.47;100.00
28306;BME280;7516;43.570;1.448;2022-10-31T05:40:24;99589.59;;;16.47;100.00
28306;BME280;7516;43.570;1.448;2022-10-31T05:42:53;99597.38;;;16.42;100.00
28306;BME280;7516;43.570;1.448;2022-10-31T05:45:22;99597.81;;;16.39;100.00
28306;BME280;7516;43.570;1.448;2022-10-31T05:47:55;99596.19;;;16.38;100.00
28306;BME280;7516;43.570;1.448;2022-10-31T05:50:24;99593.97;;;16.35;100.00
28306;BME280;7516;43.570;1.448;2022-10-31T05:52:55;99586.03;;;16.35;100.00
28306;BME280;7516;43.570;1.448;2022-10-31T05:55:23;99587.88;;;16.35;100.00
28306;BME280;7516;43.570;1.448;2022-10-31T05:57:51;99585.44;;;16.33;100.00
28306;BME280;7516;43.570;1.448;2022-10-31T06:00:20;99587.47;;;16.31;100.00
28306;BME280;7516;43.570;1.448;2022-10-31T06:02:47;99603.94;;;16.33;100.00
28306;BME280;7516;43.570;1.448;2022-10-31T06:05:16;99602.31;;;16.32;100.00
28306;BME280;7516;43.570;1.448;2022-10-31T06:07:44;99602.94;;;16.28;100.00
28306;BME280;7516;43.570;1.448;2022-10-31T06:10:11;99596.63;;;16.29;100.00
28306;BME280;7516;43.570;1.448;2022-10-31T06:12:39;99594.19;;;16.27;100.00
28306;BME280;7516;43.570;1.448;2022-10-31T06:15:07;99602.38;;;16.26;100.00
28306;BME280;7516;43.570;1.448;2022-10-31T06:17:36;99589.75;;;16.21;100.00
28306;BME280;7516;43.570;1.448;2022-10-31T06:20:05;99591.38;;;16.22;100.00
28306;BME280;7516;43.570;1.448;2022-10-31T06:22:34;99597.91;;;16.19;100.00
28306;BME280;7516;43.570;1.448;2022-10-31T06:25:02;99584.09;;;16.17;100.00
28306;BME280;7516;43.570;1.448;2022-10-31T06:27:29;99574.97;;;16.13;100.00
28306;BME280;7516;43.570;1.448;2022-10-31T06:29:57;99580.44;;;16.12;100.00
28306;BME280;7516;43.570;1.448;2022-10-31T06:32:24;99585.75;;;16.12;100.00
28306;BME280;7516;43.570;1.448;2022-10-31T06:34:52;99585.13;;;16.10;100.00
28306;BME280;7516;43.570;1.448;2022-10-31T06:37:19;99590.63;;;16.15;100.00
28306;BME280;7516;43.570;1.448;2022-10-31T06:39:48;99589.41;;;16.17;100.00
28306;BME280;7516;43.570;1.448;2022-10-31T06:42:16;99593.44;;;16.20;100.00
28306;BME280;7516;43.570;1.448;2022-10-31T06:44:43;99589.75;;;16.21;100.00
28306;BME280;7516;43.570;1.448;2022-10-31T06:47:11;99579.78;;;16.23;100.00
28306;BME280;7516;43.570;1.448;2022-10-31T06:49:38;99578.13;;;16.29;100.00
28306;BME280;7516;43.570;1.448;2022-10-31T06:52:06;99579.53;;;16.31;100.00
28306;BME280;7516;43.570;1.448;2022-10-31T06:54:33;99586.84;;;16.36;100.00
28306;BME280;7516;43.570;1.448;2022-10-31T06:57:02;99586.97;;;16.47;100.00
28306;BME280;7516;43.570;1.448;2022-10-31T06:59:30;99595.72;;;16.48;100.00
28306;BME280;7516;43.570;1.448;2022-10-31T07:01:58;99605.88;;;16.51;100.00
28306;BME280;7516;43.570;1.448;2022-10-31T07:04:25;99600.13;;;16.61;100.00
28306;BME280;7516;43.570;1.448;2022-10-31T07:06:53;99600.53;;;16.64;100.00
28306;BME280;7516;43.570;1.448;2022-10-31T07:09:20;99602.34;;;16.70;100.00
28306;BME280;7516;43.570;1.448;2022-10-31T07:11:48;99605.56;;;16.72;100.00
28306;BME280;7516;43.570;1.448;2022-10-31T07:14:17;99600.44;;;16.77;100.00
28306;BME280;7516;43.570;1.448;2022-10-31T07:16:47;99593.88;;;16.80;100.00
28306;BME280;7516;43.570;1.448;2022-10-31T07:19:15;99606.88;;;16.88;100.00
28306;BME280;7516;43.570;1.448;2022-10-31T07:21:42;99600.72;;;16.94;100.00
28306;BME280;7516;43.570;1.448;2022-10-31T07:24:10;99593.81;;;16.93;100.00
28306;BME280;7516;43.570;1.448;2022-10-31T07:26:37;99600.13;;;16.92;100.00
28306;BME280;7516;43.570;1.448;2022-10-31T07:29:05;99598.69;;;16.96;100.00
28306;BME280;7516;43.570;1.448;2022-10-31T07:31:34;99598.81;;;17.01;100.00
28306;BME280;7516;43.570;1.448;2022-10-31T07:34:01;99594.13;;;17.03;100.00
28306;BME280;7516;43.570;1.448;2022-10-31T07:36:29;99587.22;;;17.02;100.00
28306;BME280;7516;43.570;1.448;2022-10-31T07:38:56;99581.50;;;17.05;100.00
28306;BME280;7516;43.570;1.448;2022-10-31T07:41:25;99576.94;;;17.12;100.00
28306;BME280;7516;43.570;1.448;2022-10-31T07:43:52;99587.06;;;17.15;100.00
28306;BME280;7516;43.570;1.448;2022-10-31T07:46:21;99591.34;;;17.16;100.00
28306;BME280;7516;43.570;1.448;2022-10-31T07:48:50;99593.50;;;17.26;100.00
28306;BME280;7516;43.570;1.448;2022-10-31T07:51:17;99591.25;;;17.29;100.00
28306;BME280;7516;43.570;1.448;2022-10-31T07:53:45;99593.47;;;17.33;100.00
28306;BME280;7516;43.570;1.448;2022-10-31T07:56:13;99589.72;;;17.40;100.00
28306;BME280;7516;43.570;1.448;2022-10-31T07:58:40;99597.81;;;17.45;100.00
28306;BME280;7516;43.570;1.448;2022-10-31T08:01:08;99604.72;;;17.46;100.00
28306;BME280;7516;43.570;1.448;2022-10-31T08:03:35;99601.41;;;17.51;100.00
28306;BME280;7516;43.570;1.448;2022-10-31T08:06:04;99593.03;;;17.54;100.00
28306;BME280;7516;43.570;1.448;2022-10-31T08:08:32;99588.66;;;17.66;100.00
28306;BME280;7516;43.570;1.448;2022-10-31T08:10:59;99587.69;;;17.79;100.00
28306;BME280;7516;43.570;1.448;2022-10-31T08:13:27;99583.03;;;17.92;100.00
28306;BME280;7516;43.570;1.448;2022-10-31T08:15:54;99581.25;;;18.04;100.00
28306;BME280;7516;43.570;1.448;2022-10-31T08:18:22;99590.50;;;18.14;100.00
28306;BME280;7516;43.570;1.448;2022-10-31T08:20:50;99585.94;;;18.21;100.00
28306;BME280;7516;43.570;1.448;2022-10-31T08:23:19;99575.03;;;18.29;100.00
28306;BME280;7516;43.570;1.448;2022-10-31T08:25:46;99573.19;;;18.41;100.00
28306;BME280;7516;43.570;1.448;2022-10-31T08:28:14;99569.19;;;18.50;100.00
28306;BME280;7516;43.570;1.448;2022-10-31T08:30:42;99571.53;;;18.58;100.00
28306;BME280;7516;43.570;1.448;2022-10-31T08:33:11;99569.38;;;18.67;100.00
28306;BME280;7516;43.570;1.448;2022-10-31T08:35:39;99571.34;;;18.71;100.00
28306;BME280;7516;43.570;1.448;2022-10-31T08:38:08;99565.13;;;18.77;100.00
28306;BME280;7516;43.570;1.448;2022-10-31T08:40:37;99564.19;;;18.84;100.00
28306;BME280;7516;43.570;1.448;2022-10-31T08:43:06;99554.53;;;18.89;100.00
28306;BME280;7516;43.570;1.448;2022-10-31T08:45:34;99557.88;;;18.96;100.00
28306;BME280;7516;43.570;1.448;2022-10-31T08:48:04;99547.56;;;19.00;98.91
28306;BME280;7516;43.570;1.448;2022-10-31T08:50:33;99547.50;;;19.06;97.45
28306;BME280;7516;43.570;1.448;2022-10-31T08:53:02;99547.25;;;19.08;97.29
28306;BME280;7516;43.570;1.448;2022-10-31T08:55:30;99548.63;;;19.10;97.68
28306;BME280;7516;43.570;1.448;2022-10-31T08:57:59;99534.44;;;19.16;97.68
28306;BME280;7516;43.570;1.448;2022-10-31T09:00:26;99538.91;;;19.28;96.08
28306;BME280;7516;43.570;1.448;2022-10-31T09:02:58;99543.88;;;19.36;96.56
28306;BME280;7516;43.570;1.448;2022-10-31T09:05:26;99535.44;;;19.39;96.18
28306;BME280;7516;43.570;1.448;2022-10-31T09:07:55;99537.72;;;19.47;96.17
28306;BME280;7516;43.570;1.448;2022-10-31T09:10:24;99534.06;;;19.48;94.41
28306;BME280;7516;43.570;1.448;2022-10-31T09:12:55;99543.75;;;19.54;93.93
28306;BME280;7516;43.570;1.448;2022-10-31T09:15:25;99529.41;;;19.55;94.11
28306;BME280;7516;43.570;1.448;2022-10-31T09:17:53;99534.97;;;19.53;92.92
28306;BME280;7516;43.570;1.448;2022-10-31T09:20:21;99530.81;;;19.58;92.54
28306;BME280;7516;43.570;1.448;2022-10-31T09:22:54;99514.63;;;19.59;91.58
28306;BME280;7516;43.570;1.448;2022-10-31T09:25:22;99526.63;;;19.62;90.31
28306;BME280;7516;43.570;1.448;2022-10-31T09:27:50;99523.41;;;19.60;90.54
28306;BME280;7516;43.570;1.448;2022-10-31T09:30:17;99511.75;;;19.61;90.95
28306;BME280;7516;43.570;1.448;2022-10-31T09:32:46;99511.75;;;19.61;90.37
28306;BME280;7516;43.570;1.448;2022-10-31T09:35:14;99514.41;;;19.61;90.20
28306;BME280;7516;43.570;1.448;2022-10-31T09:37:41;99519.47;;;19.62;89.64
28306;BME280;7516;43.570;1.448;2022-10-31T09:40:09;99512.63;;;19.66;89.97
28306;BME280;7516;43.570;1.448;2022-10-31T09:42:48;99514.78;;;19.81;89.41
28306;BME280;7516;43.570;1.448;2022-10-31T09:45:23;99518.81;;;19.83;89.33
28306;BME280;7516;43.570;1.448;2022-10-31T09:48:09;99511.31;;;19.80;89.25
28306;BME280;7516;43.570;1.448;2022-10-31T09:50:43;99524.50;;;19.87;87.53
28306;BME280;7516;43.570;1.448;2022-10-31T09:53:20;99521.34;;;19.90;88.03
28306;BME280;7516;43.570;1.448;2022-10-31T09:55:49;99516.13;;;19.95;87.25
28306;BME280;7516;43.570;1.448;2022-10-31T09:58:22;99505.56;;;20.00;86.55
28306;BME280;7516;43.570;1.448;2022-10-31T10:00:50;99511.47;;;20.02;86.24
28306;BME280;7516;43.570;1.448;2022-10-31T10:03:29;99514.78;;;20.09;85.85
28306;BME280;7516;43.570;1.448;2022-10-31T10:06:06;99516.25;;;20.17;85.31
28306;BME280;7516;43.570;1.448;2022-10-31T10:08:35;99509.25;;;20.27;84.73
28306;BME280;7516;43.570;1.448;2022-10-31T10:11:13;99516.63;;;20.37;83.56
28306;BME280;7516;43.570;1.448;2022-10-31T10:14:13;99520.03;;;20.49;82.20
28306;BME280;7516;43.570;1.448;2022-10-31T10:16:54;99504.22;;;20.59;81.61
28306;BME280;7516;43.570;1.448;2022-10-31T10:19:43;99509.41;;;20.66;80.80
28306;BME280;7516;43.570;1.448;2022-10-31T10:22:22;99511.06;;;20.72;79.41
28306;BME280;7516;43.570;1.448;2022-10-31T10:25:02;99516.06;;;20.85;79.07
28306;BME280;7516;43.570;1.448;2022-10-31T10:27:45;99508.56;;;20.82;78.90
28306;BME280;7516;43.570;1.448;2022-10-31T10:30:15;99505.50;;;20.90;78.52
28306;BME280;7516;43.570;1.448;2022-10-31T10:32:46;99503.69;;;20.96;79.00
28306;BME280;7516;43.570;1.448;2022-10-31T10:35:22;99493.94;;;21.01;78.75
28306;BME280;7516;43.570;1.448;2022-10-31T10:37:54;99493.00;;;21.13;77.97
28306;BME280;7516;43.570;1.448;2022-10-31T10:40:25;99499.31;;;21.23;77.25
28306;BME280;7516;43.570;1.448;2022-10-31T10:42:59;99499.63;;;21.27;74.54
28306;BME280;7516;43.570;1.448;2022-10-31T10:45:50;99486.84;;;21.29;74.28
28306;BME280;7516;43.570;1.448;2022-10-31T10:48:43;99493.88;;;21.35;73.52
28306;BME280;7516;43.570;1.448;2022-10-31T10:51:23;99483.81;;;21.42;72.36
28306;BME280;7516;43.570;1.448;2022-10-31T10:54:14;99474.81;;;21.48;72.47
28306;BME280;7516;43.570;1.448;2022-10-31T10:56:55;99482.47;;;21.61;71.59
28306;BME280;7516;43.570;1.448;2022-10-31T10:59:24;99480.88;;;21.65;71.36
28306;BME280;7516;43.570;1.448;2022-10-31T11:01:52;99476.69;;;21.69;71.13
28306;BME280;7516;43.570;1.448;2022-10-31T11:04:30;99476.22;;;21.77;68.91
28306;BME280;7516;43.570;1.448;2022-10-31T11:07:02;99472.06;;;21.87;69.28
28306;BME280;7516;43.570;1.448;2022-10-31T11:09:32;99472.34;;;21.90;69.53
28306;BME280;7516;43.570;1.448;2022-10-31T11:12:05;99471.59;;;21.95;69.28
28306;BME280;7516;43.570;1.448;2022-10-31T11:14:42;99472.16;;;21.97;68.10
28306;BME280;7516;43.570;1.448;2022-10-31T11:17:20;99464.53;;;22.05;68.45
28306;BME280;7516;43.570;1.448;2022-10-31T11:19:47;99458.47;;;22.15;67.70
28306;BME280;7516;43.570;1.448;2022-10-31T11:22:17;99455.84;;;22.20;67.67
28306;BME280;7516;43.570;1.448;2022-10-31T11:24:45;99449.44;;;22.21;68.22
28306;BME280;7516;43.570;1.448;2022-10-31T11:27:15;99455.34;;;22.23;68.56
28306;BME280;7516;43.570;1.448;2022-10-31T11:29:43;99452.47;;;22.30;67.95
28306;BME280;7516;43.570;1.448;2022-10-31T11:32:22;99453.81;;;22.32;67.78
28306;BME280;7516;43.570;1.448;2022-10-31T11:34:52;99439.94;;;22.35;68.27
28306;BME280;7516;43.570;1.448;2022-10-31T11:37:24;99440.50;;;22.37;68.34
28306;BME280;7516;43.570;1.448;2022-10-31T11:39:55;99446.97;;;22.46;66.86
28306;BME280;7516;43.570;1.448;2022-10-31T11:42:25;99449.16;;;22.49;67.41
28306;BME280;7516;43.570;1.448;2022-10-31T11:44:55;99437.41;;;22.56;66.97
28306;BME280;7516;43.570;1.448;2022-10-31T11:47:26;99430.75;;;22.58;65.29
28306;BME280;7516;43.570;1.448;2022-10-31T11:49:56;99438.00;;;22.63;65.66
28306;BME280;7516;43.570;1.448;2022-10-31T11:52:27;99430.28;;;22.66;65.28
28306;BME280;7516;43.570;1.448;2022-10-31T11:54:57;99421.22;;;22.67;65.66
28306;BME280;7516;43.570;1.448;2022-10-31T11:57:27;99420.41;;;22.72;65.94
28306;BME280;7516;43.570;1.448;2022-10-31T11:59:58;99408.75;;;22.78;64.63
28306;BME280;7516;43.570;1.448;2022-10-31T12:02:26;99395.09;;;22.79;65.11
28306;BME280;7516;43.570;1.448;2022-10-31T12:05:02;99388.94;;;22.79;64.89
28306;BME280;7516;43.570;1.448;2022-10-31T12:07:33;99394.09;;;22.85;65.31
28306;BME280;7516;43.570;1.448;2022-10-31T12:10:00;99388.44;;;22.87;64.19
28306;BME280;7516;43.570;1.448;2022-10-31T12:15:31;99377.84;;;23.07;64.05
28306;BME280;7516;43.570;1.448;2022-10-31T12:18:36;99364.22;;;23.14;63.19
28306;BME280;7516;43.570;1.448;2022-10-31T12:21:15;99368.78;;;23.13;63.42
28306;BME280;7516;43.570;1.448;2022-10-31T12:23:57;99368.78;;;23.13;63.23
28306;BME280;7516;43.570;1.448;2022-10-31T12:26:41;99378.16;;;23.16;62.96
28306;BME280;7516;43.570;1.448;2022-10-31T12:29:21;99358.06;;;23.08;62.55
28306;BME280;7516;43.570;1.448;2022-10-31T12:32:08;99363.97;;;23.10;62.35
28306;BME280;7516;43.570;1.448;2022-10-31T12:37:42;99355.69;;;23.12;62.94
28306;BME280;7516;43.570;1.448;2022-10-31T12:40:27;99355.94;;;23.15;63.50
28306;BME280;7516;43.570;1.448;2022-10-31T12:43:08;99344.97;;;23.07;64.06
28306;BME280;7516;43.570;1.448;2022-10-31T12:45:52;99334.00;;;23.13;63.38
28306;BME280;7516;43.570;1.448;2022-10-31T12:48:42;99330.31;;;23.19;63.59
28306;BME280;7516;43.570;1.448;2022-10-31T12:51:19;99331.91;;;23.20;62.76
28306;BME280;7516;43.570;1.448;2022-10-31T12:54:09;99319.59;;;23.19;62.47
28306;BME280;7516;43.570;1.448;2022-10-31T12:56:50;99330.28;;;23.14;62.42
28306;BME280;7516;43.570;1.448;2022-10-31T12:59:24;99318.25;;;23.12;62.62
28306;BME280;7516;43.570;1.448;2022-10-31T13:01:58;99316.66;;;23.16;63.10
28306;BME280;7516;43.570;1.448;2022-10-31T13:04:36;99309.16;;;23.18;62.69
28306;BME280;7516;43.570;1.448;2022-10-31T13:07:11;99311.31;;;23.16;61.34
28306;BME280;7516;43.570;1.448;2022-10-31T13:09:45;99323.91;;;23.20;62.10
28306;BME280;7516;43.570;1.448;2022-10-31T13:12:18;99315.88;;;23.20;61.25
28306;BME280;7516;43.570;1.448;2022-10-31T13:14:49;99315.88;;;23.20;61.29
28306;BME280;7516;43.570;1.448;2022-10-31T13:17:26;99313.19;;;23.25;61.71
28306;BME280;7516;43.570;1.448;2022-10-31T13:20:08;99305.72;;;23.33;61.90
28306;BME280;7516;43.570;1.448;2022-10-31T13:22:44;99307.06;;;23.40;62.31
28306;BME280;7516;43.570;1.448;2022-10-31T13:25:16;99302.00;;;23.49;61.92
28306;BME280;7516;43.570;1.448;2022-10-31T13:27:51;99297.22;;;23.56;60.92
28306;BME280;7516;43.570;1.448;2022-10-31T13:30:21;99301.50;;;23.57;60.68
28306;BME280;7516;43.570;1.448;2022-10-31T13:32:54;99296.69;;;23.54;59.92
28306;BME280;7516;43.570;1.448;2022-10-31T13:35:28;99300.41;;;23.58;60.35
28306;BME280;7516;43.570;1.448;2022-10-31T13:38:09;99297.75;;;23.53;59.42